createdAt,value
2023-02-03T00:02:06.803Z,11.00
2023-02-03T00:04:34.873Z,8.60
2023-02-03T00:07:03.144Z,9.90
2023-02-03T00:09:33.065Z,8.10
2023-02-03T00:12:01.072Z,7.10
2023-02-03T00:14:29.114Z,8.90
2023-02-03T00:16:57.526Z,9.10
2023-02-03T00:19:25.557Z,11.10
2023-02-03T00:21:53.511Z,9.40
2023-02-03T00:24:24.028Z,5.50
2023-02-03T00:26:51.973Z,8.90
2023-02-03T00:29:24.927Z,6.60
2023-02-03T00:31:54.333Z,6.90
2023-02-03T00:34:28.660Z,5.80
2023-02-03T00:36:57.443Z,6.60
2023-02-03T00:39:25.851Z,6.10
2023-02-03T00:41:54.390Z,7.00
2023-02-03T00:44:23.464Z,6.60
2023-02-03T00:46:54.485Z,6.20
2023-02-03T00:49:23.727Z,7.40
2023-02-03T00:51:52.200Z,7.00
2023-02-03T00:54:21.993Z,5.00
2023-02-03T00:56:50.771Z,5.10
2023-02-03T00:59:18.873Z,4.80
2023-02-03T01:01:49.805Z,6.40
2023-02-03T01:04:17.797Z,8.10
2023-02-03T01:06:45.840Z,7.60
2023-02-03T01:09:14.048Z,8.10
2023-02-03T01:11:42.152Z,6.50
2023-02-03T01:14:10.782Z,8.40
2023-02-03T01:16:40.321Z,9.00
2023-02-03T01:19:09.783Z,8.20
2023-02-03T01:21:37.848Z,8.10
2023-02-03T01:24:05.872Z,8.10
2023-02-03T01:26:34.729Z,7.40
2023-02-03T01:29:02.900Z,6.60
2023-02-03T01:31:37.249Z,8.70
2023-02-03T01:34:14.408Z,6.70
2023-02-03T01:36:42.680Z,6.20
2023-02-03T01:39:10.672Z,6.80
2023-02-03T01:41:41.965Z,7.40
2023-02-03T01:44:29.112Z,5.20
2023-02-03T01:46:59.227Z,6.00
2023-02-03T01:49:29.638Z,5.50
2023-02-03T01:54:27.719Z,4.70
2023-02-03T01:56:57.328Z,7.20
2023-02-03T01:59:26.244Z,6.70
2023-02-03T02:01:55.143Z,6.10
2023-02-03T02:04:26.687Z,7.50
2023-02-03T02:06:56.474Z,7.00
2023-02-03T02:09:25.297Z,5.50
2023-02-03T02:11:53.635Z,5.40
2023-02-03T02:14:23.560Z,6.00
2023-02-03T02:16:52.467Z,6.10
2023-02-03T02:19:26.905Z,6.70
2023-02-03T02:21:55.376Z,8.40
2023-02-03T02:24:42.271Z,7.00
2023-02-03T02:27:28.999Z,9.20
2023-02-03T02:29:59.648Z,8.40
2023-02-03T02:32:58.731Z,6.40
2023-02-03T02:35:38.721Z,7.10
2023-02-03T02:38:20.423Z,5.70
2023-02-03T02:40:48.535Z,7.10
2023-02-03T02:43:20.090Z,10.20
2023-02-03T02:45:54.692Z,5.30
2023-02-03T02:48:33.436Z,7.30
2023-02-03T02:51:02.933Z,6.10
2023-02-03T02:53:33.325Z,5.90
2023-02-03T02:58:30.463Z,5.10
2023-02-03T03:00:58.976Z,6.80
2023-02-03T03:03:27.103Z,8.40
2023-02-03T03:06:01.780Z,10.70
2023-02-03T03:08:37.832Z,8.80
2023-02-03T03:11:06.119Z,6.40
2023-02-03T03:13:36.082Z,5.50
2023-02-03T03:16:07.764Z,8.80
2023-02-03T03:18:43.548Z,7.40
2023-02-03T03:21:14.438Z,7.80
2023-02-03T03:23:45.219Z,8.30
2023-02-03T03:26:28.062Z,5.60
2023-02-03T03:29:11.481Z,6.90
2023-02-03T03:31:40.475Z,6.20
2023-02-03T03:34:11.795Z,8.70
2023-02-03T03:36:42.648Z,8.20
2023-02-03T03:39:25.945Z,7.00
2023-02-03T03:42:12.295Z,9.70
2023-02-03T03:44:44.804Z,5.60
2023-02-03T03:47:16.456Z,6.50
2023-02-03T03:49:45.443Z,8.00
2023-02-03T03:52:16.885Z,7.50
2023-02-03T03:54:46.068Z,6.60
2023-02-03T03:57:20.959Z,6.40
2023-02-03T03:59:49.729Z,6.30
2023-02-03T04:02:21.318Z,7.20
2023-02-03T04:04:50.478Z,3.80
2023-02-03T04:07:20.100Z,5.80
2023-02-03T04:09:48.457Z,6.60
2023-02-03T04:12:20.346Z,8.60
2023-02-03T04:14:51.878Z,8.80
2023-02-03T04:17:20.477Z,5.50
2023-02-03T04:19:50.088Z,7.30
2023-02-03T04:22:18.278Z,7.00
2023-02-03T04:24:46.962Z,6.70
2023-02-03T04:27:22.667Z,6.00
2023-02-03T04:29:51.422Z,6.00
2023-02-03T04:32:20.029Z,7.50
2023-02-03T04:34:49.507Z,4.70
2023-02-03T04:37:17.718Z,7.40
2023-02-03T04:39:45.634Z,7.10
2023-02-03T04:42:13.847Z,7.70
2023-02-03T04:44:42.208Z,7.20
2023-02-03T04:47:10.635Z,6.30
2023-02-03T04:49:38.977Z,6.70
2023-02-03T04:52:07.060Z,6.90
2023-02-03T04:54:37.226Z,6.90
2023-02-03T04:57:05.759Z,8.40
2023-02-03T04:59:35.760Z,5.90
2023-02-03T05:02:04.460Z,6.70
2023-02-03T05:04:35.424Z,13.30
2023-02-03T05:07:03.422Z,5.80
2023-02-03T05:09:32.172Z,5.30
2023-02-03T05:12:04.435Z,6.20
2023-02-03T05:14:32.467Z,11.20
2023-02-03T05:17:00.563Z,6.80
2023-02-03T05:19:28.991Z,7.10
2023-02-03T05:21:57.298Z,10.20
2023-02-03T05:24:25.438Z,10.30
2023-02-03T05:26:53.740Z,8.40
2023-02-03T05:29:21.701Z,7.70
2023-02-03T05:31:50.301Z,6.80
2023-02-03T05:34:18.321Z,6.80
2023-02-03T05:36:46.690Z,7.00
2023-02-03T05:39:14.696Z,7.20
2023-02-03T05:41:57.339Z,6.90
2023-02-03T05:44:39.402Z,6.90
2023-02-03T05:47:07.480Z,6.90
2023-02-03T05:49:36.362Z,6.40
2023-02-03T05:52:06.837Z,10.30
2023-02-03T05:54:34.971Z,10.40
2023-02-03T05:57:03.051Z,13.00
2023-02-03T05:59:32.249Z,15.40
2023-02-03T06:02:00.953Z,8.70
2023-02-03T06:04:29.438Z,10.30
2023-02-03T06:06:57.479Z,8.00
2023-02-03T06:09:25.510Z,7.10
2023-02-03T06:11:54.819Z,9.20
2023-02-03T06:14:23.029Z,6.60
2023-02-03T06:16:51.499Z,10.90
2023-02-03T06:19:19.727Z,9.60
2023-02-03T06:21:47.970Z,13.40
2023-02-03T06:24:16.182Z,13.20
2023-02-03T06:26:44.525Z,16.00
2023-02-03T06:29:12.844Z,10.90
2023-02-03T06:31:43.097Z,11.30
2023-02-03T06:36:39.321Z,10.70
2023-02-03T06:41:41.285Z,10.80
2023-02-03T06:44:09.523Z,16.10
2023-02-03T06:46:38.261Z,10.30
2023-02-03T06:49:06.481Z,17.70
2023-02-03T06:51:35.868Z,16.30
2023-02-03T06:54:05.130Z,8.10
2023-02-03T06:56:33.068Z,13.70
2023-02-03T06:59:01.174Z,17.00
2023-02-03T07:01:29.967Z,10.10
2023-02-03T07:03:59.357Z,12.30
2023-02-03T07:06:29.376Z,8.60
2023-02-03T07:08:57.521Z,10.80
2023-02-03T07:11:25.864Z,11.30
2023-02-03T07:13:53.954Z,8.70
2023-02-03T07:16:22.261Z,9.90
2023-02-03T07:18:50.425Z,14.20
2023-02-03T07:21:19.541Z,9.20
2023-02-03T07:23:49.267Z,8.60
2023-02-03T07:26:18.194Z,10.10
2023-02-03T07:28:46.485Z,13.80
2023-02-03T07:31:14.849Z,6.70
2023-02-03T07:33:42.908Z,17.80
2023-02-03T07:36:12.650Z,9.90
2023-02-03T07:38:40.802Z,8.30
2023-02-03T07:41:09.087Z,7.70
2023-02-03T07:43:37.817Z,10.90
2023-02-03T07:46:07.422Z,8.40
2023-02-03T07:48:37.578Z,6.80
2023-02-03T07:51:05.806Z,6.60
2023-02-03T07:53:34.255Z,7.70
2023-02-03T07:56:26.565Z,9.10
2023-02-03T07:59:03.097Z,10.10
2023-02-03T08:01:48.505Z,6.10
2023-02-03T08:04:36.394Z,9.70
2023-02-03T08:07:09.759Z,6.10
2023-02-03T08:09:57.268Z,4.20
2023-02-03T08:12:45.446Z,3.50
2023-02-03T08:15:23.791Z,6.00
2023-02-03T08:17:52.890Z,6.80
2023-02-03T08:20:22.195Z,6.50
2023-02-03T08:22:53.035Z,7.90
2023-02-03T08:25:22.623Z,7.20
2023-02-03T08:27:56.728Z,5.90
2023-02-03T08:30:27.585Z,6.50
2023-02-03T08:32:58.355Z,4.00
2023-02-03T08:35:26.764Z,4.80
2023-02-03T08:37:55.746Z,5.10
2023-02-03T08:40:33.490Z,5.40
2023-02-03T08:43:01.483Z,15.30
2023-02-03T08:45:29.644Z,4.90
2023-02-03T08:47:57.846Z,4.90
2023-02-03T08:50:26.591Z,6.40
2023-02-03T08:52:54.833Z,4.50
2023-02-03T08:55:25.460Z,4.80
2023-02-03T08:57:53.618Z,5.20
2023-02-03T09:00:22.735Z,4.70
2023-02-03T09:02:50.771Z,5.70
2023-02-03T09:05:19.436Z,5.80
2023-02-03T09:07:47.543Z,4.50
2023-02-03T09:10:15.649Z,10.00
2023-02-03T09:12:44.416Z,7.30
2023-02-03T09:15:13.479Z,6.20
2023-02-03T09:17:41.772Z,7.60
2023-02-03T09:20:10.641Z,7.10
2023-02-03T09:22:39.053Z,7.40
2023-02-03T09:25:07.843Z,4.60
2023-02-03T09:27:48.376Z,4.50
2023-02-03T09:30:17.895Z,6.00
2023-02-03T09:32:49.096Z,10.40
2023-02-03T09:35:17.350Z,7.70
2023-02-03T09:37:46.026Z,6.20
2023-02-03T09:40:18.826Z,6.30
2023-02-03T09:42:53.383Z,5.90
2023-02-03T09:45:25.320Z,7.50
2023-02-03T09:47:56.637Z,5.40
2023-02-03T09:50:30.767Z,6.30
2023-02-03T09:52:59.067Z,8.90
2023-02-03T09:55:41.266Z,6.80
2023-02-03T09:58:14.262Z,6.50
2023-02-03T10:00:52.046Z,5.20
2023-02-03T10:03:31.595Z,5.70
2023-02-03T10:06:18.655Z,5.30
2023-02-03T10:08:46.795Z,4.00
2023-02-03T10:11:33.644Z,5.70
2023-02-03T10:14:16.227Z,8.10
2023-02-03T10:17:04.863Z,10.30
2023-02-03T10:19:45.821Z,4.70
2023-02-03T10:24:50.318Z,7.40
2023-02-03T10:27:22.965Z,5.00
2023-02-03T10:30:10.019Z,3.30
2023-02-03T10:32:38.332Z,5.00
2023-02-03T10:35:13.058Z,3.10
2023-02-03T10:37:43.081Z,3.70
2023-02-03T10:40:14.937Z,3.00
2023-02-03T10:43:01.839Z,6.40
2023-02-03T10:45:32.398Z,6.50
2023-02-03T10:48:00.640Z,4.10
2023-02-03T10:50:32.085Z,4.40
2023-02-03T10:53:18.448Z,4.80
2023-02-03T10:55:48.737Z,5.60
2023-02-03T10:58:27.483Z,3.90
2023-02-03T11:01:08.948Z,4.20
2023-02-03T11:03:38.127Z,1.80
2023-02-03T11:06:08.771Z,6.10
2023-02-03T11:08:40.624Z,5.30
2023-02-03T11:11:10.316Z,2.90
2023-02-03T11:13:38.775Z,4.90
2023-02-03T11:16:15.881Z,2.90
2023-02-03T11:18:44.294Z,3.50
2023-02-03T11:21:12.394Z,6.30
2023-02-03T11:23:59.500Z,3.20
2023-02-03T11:26:34.533Z,2.80
2023-02-03T11:29:05.697Z,5.70
2023-02-03T11:31:50.016Z,4.80
2023-02-03T11:34:27.779Z,6.20
2023-02-03T11:36:56.541Z,2.70
2023-02-03T11:39:24.715Z,2.90
2023-02-03T11:41:53.226Z,3.70
2023-02-03T11:44:29.341Z,5.70
2023-02-03T11:47:02.817Z,5.20
2023-02-03T11:49:49.793Z,4.60
2023-02-03T11:52:38.804Z,6.70
2023-02-03T11:55:07.008Z,5.80
2023-02-03T11:58:00.200Z,5.10
2023-02-03T12:00:35.026Z,4.00
2023-02-03T12:03:07.677Z,3.00
2023-02-03T12:05:42.069Z,4.60
2023-02-03T12:08:29.344Z,5.10
2023-02-03T12:11:03.623Z,4.70
2023-02-03T12:13:44.004Z,3.90
2023-02-03T12:16:12.044Z,3.50
2023-02-03T12:19:01.494Z,4.20
2023-02-03T12:21:32.567Z,2.00
2023-02-03T12:24:17.660Z,3.00
2023-02-03T12:26:58.051Z,2.90
2023-02-03T12:29:32.522Z,2.70
2023-02-03T12:32:04.188Z,3.30
2023-02-03T12:34:34.569Z,4.30
2023-02-03T12:37:08.637Z,5.00
2023-02-03T12:39:55.723Z,2.40
2023-02-03T12:42:30.677Z,3.70
2023-02-03T12:45:01.826Z,3.30
2023-02-03T12:47:40.259Z,2.60
2023-02-03T12:50:14.398Z,4.30
2023-02-03T12:52:51.571Z,4.40
2023-02-03T12:55:34.454Z,3.40
2023-02-03T12:58:05.495Z,3.20
2023-02-03T13:00:52.156Z,4.00
2023-02-03T13:03:42.570Z,2.50
2023-02-03T13:06:20.414Z,2.90
2023-02-03T13:08:58.694Z,2.90
2023-02-03T13:11:47.003Z,4.00
2023-02-03T13:14:36.652Z,4.70
2023-02-03T13:17:12.919Z,2.60
2023-02-03T13:19:43.742Z,2.30
2023-02-03T13:22:12.750Z,2.40
2023-02-03T13:24:47.242Z,4.30
2023-02-03T13:27:18.715Z,4.00
2023-02-03T13:30:14.196Z,3.70
2023-02-03T13:32:45.430Z,2.50
2023-02-03T13:35:34.499Z,2.70
2023-02-03T13:38:03.282Z,4.40
2023-02-03T13:40:34.447Z,4.20
2023-02-03T13:43:06.263Z,5.90
2023-02-03T13:45:42.030Z,4.20
2023-02-03T13:48:24.304Z,3.30
2023-02-03T13:51:03.307Z,3.80
2023-02-03T13:53:35.390Z,6.30
2023-02-03T13:56:18.483Z,6.00
2023-02-03T13:58:59.418Z,10.60
2023-02-03T14:01:35.897Z,5.10
2023-02-03T14:04:09.092Z,3.80
2023-02-03T14:06:37.170Z,3.40
2023-02-03T14:09:23.901Z,4.50
2023-02-03T14:11:52.818Z,5.00
2023-02-03T14:14:20.938Z,6.20
2023-02-03T14:16:52.666Z,4.50
2023-02-03T14:19:22.607Z,7.20
2023-02-03T14:21:55.893Z,5.50
2023-02-03T14:24:29.934Z,5.90
2023-02-03T14:26:59.388Z,10.20
2023-02-03T14:29:27.619Z,3.70
2023-02-03T14:31:57.605Z,4.30
2023-02-03T14:34:31.895Z,4.70
2023-02-03T14:37:23.287Z,3.40
2023-02-03T14:40:11.566Z,4.40
2023-02-03T14:42:40.840Z,4.00
2023-02-03T14:45:35.343Z,4.50
2023-02-03T14:48:17.894Z,3.80
2023-02-03T14:50:55.385Z,4.80
2023-02-03T14:53:23.322Z,4.60
2023-02-03T14:56:01.256Z,5.20
2023-02-03T14:58:34.196Z,4.00
2023-02-03T15:01:05.725Z,4.10
2023-02-03T15:03:35.280Z,3.40
2023-02-03T15:06:04.989Z,4.40
2023-02-03T15:08:44.310Z,5.00
2023-02-03T15:11:21.318Z,4.40
2023-02-03T15:13:49.412Z,4.70
2023-02-03T15:16:19.325Z,5.00
2023-02-03T15:18:53.849Z,7.20
2023-02-03T15:21:22.195Z,5.10
2023-02-03T15:23:52.399Z,6.30
2023-02-03T15:26:24.781Z,8.10
2023-02-03T15:29:00.321Z,11.10
2023-02-03T15:31:28.484Z,9.70
2023-02-03T15:33:58.923Z,12.70
2023-02-03T15:36:30.379Z,15.80
2023-02-03T15:39:10.995Z,14.20
2023-02-03T15:41:39.630Z,14.00
2023-02-03T15:44:10.381Z,16.10
2023-02-03T15:46:44.107Z,12.50
2023-02-03T15:49:16.589Z,10.20
2023-02-03T15:51:46.338Z,9.10
2023-02-03T15:54:31.442Z,10.50
2023-02-03T15:57:18.586Z,16.90
2023-02-03T15:59:57.730Z,14.10
2023-02-03T16:02:30.952Z,16.50
2023-02-03T16:05:03.582Z,15.20
2023-02-03T16:07:31.665Z,15.00
2023-02-03T16:10:00.200Z,13.20
2023-02-03T16:12:30.004Z,16.10
2023-02-03T16:14:58.809Z,22.90
2023-02-03T16:17:29.830Z,21.70
2023-02-03T16:20:10.461Z,26.90
2023-02-03T16:22:39.840Z,28.50
2023-02-03T16:25:22.562Z,13.80
2023-02-03T16:28:17.141Z,12.10
2023-02-03T16:31:20.904Z,12.20
2023-02-03T16:34:11.215Z,16.60
2023-02-03T16:37:01.747Z,15.50
2023-02-03T16:42:37.948Z,11.10
2023-02-03T16:45:36.410Z,8.60
2023-02-03T16:48:23.525Z,10.10
2023-02-03T16:50:58.255Z,5.20
2023-02-03T16:53:31.429Z,5.10
2023-02-03T16:56:01.216Z,4.40
2023-02-03T16:58:31.302Z,6.50
2023-02-03T17:01:01.542Z,5.80
2023-02-03T17:03:30.054Z,7.10
2023-02-03T17:06:02.448Z,7.40
2023-02-03T17:08:30.463Z,5.30
2023-02-03T17:11:03.143Z,6.20
2023-02-03T17:13:31.268Z,6.80
2023-02-03T17:15:59.359Z,9.00
2023-02-03T17:18:27.399Z,6.30
2023-02-03T17:20:57.512Z,5.40
2023-02-03T17:23:26.689Z,8.30
2023-02-03T17:25:54.728Z,8.00
2023-02-03T17:28:23.314Z,8.20
2023-02-03T17:31:02.396Z,12.70
2023-02-03T17:33:30.878Z,9.70
2023-02-03T17:36:04.609Z,14.10
2023-02-03T17:38:36.313Z,11.00
2023-02-03T17:54:57.446Z,17.60
2023-02-03T17:57:25.425Z,17.10
2023-02-03T17:59:55.345Z,14.50
2023-02-03T18:02:23.414Z,9.40
2023-02-03T18:04:51.474Z,11.30
2023-02-03T18:07:19.664Z,9.30
2023-02-03T18:09:48.014Z,10.50
2023-02-03T18:12:16.105Z,8.20
2023-02-03T18:14:44.077Z,10.40
2023-02-03T18:17:12.115Z,11.10
2023-02-03T18:19:42.704Z,11.60
2023-02-03T18:22:12.587Z,10.10
2023-02-03T18:24:41.292Z,11.20
2023-02-03T18:27:17.182Z,10.80
2023-02-03T18:29:45.867Z,12.20
2023-02-03T18:32:15.194Z,8.90
2023-02-03T18:34:43.698Z,9.70
2023-02-03T18:37:12.063Z,8.80
2023-02-03T18:39:42.961Z,11.20
2023-02-03T18:42:14.153Z,12.10
2023-02-03T18:44:44.226Z,10.50
2023-02-03T18:47:12.988Z,12.30
2023-02-03T18:49:42.352Z,11.90
2023-02-03T18:52:11.020Z,14.10
2023-02-03T18:54:41.237Z,16.40
2023-02-03T18:57:13.130Z,17.00
2023-02-03T18:59:44.623Z,20.00
2023-02-03T19:02:12.865Z,14.00
2023-02-03T19:04:43.498Z,14.30
2023-02-03T19:07:12.519Z,13.60
2023-02-03T19:09:42.111Z,11.20
2023-02-03T19:12:10.181Z,11.00
2023-02-03T19:14:38.467Z,10.50
2023-02-03T19:17:06.566Z,11.60
2023-02-03T19:19:34.602Z,13.00
2023-02-03T19:22:02.757Z,11.70
2023-02-03T19:24:32.669Z,10.30
2023-02-03T19:27:01.044Z,11.90
2023-02-03T19:29:29.454Z,11.20
2023-02-03T19:31:58.022Z,17.90
2023-02-03T19:34:28.230Z,13.30
2023-02-03T19:39:25.079Z,9.10
